Time;durP1;ratioP1;P1;durP2;ratioP2;P2;SDS_P1;SDS_P2;PMS_P1;PMS_P2;Temp;Humidity;BMP_temperature;BMP_pressure;BME280_temperature;BME280_humidity;BME280_pressure;Samples;Min_cycle;Max_cycle;Signal;HPM_P1;HPM_P2
2021/05/13 00:01:06;;;;;;;10.20;9.40;;;10.30;99.90;;;;;;5065641;28;20224;-77
2021/05/13 00:03:33;;;;;;;10.17;9.27;;;10.30;99.90;;;;;;5064321;28;20201;-77
2021/05/13 00:06:00;;;;;;;9.70;9.00;;;10.30;99.90;;;;;;5057183;28;20698;-78
2021/05/13 00:08:27;;;;;;;12.40;9.77;;;10.20;99.90;;;;;;5061996;28;20193;-77
2021/05/13 00:11:01;;;;;;;10.10;9.30;;;10.20;99.90;;;;;;5081584;28;20856;-78
2021/05/13 00:13:28;;;;;;;10.20;9.40;;;10.20;99.90;;;;;;5063158;28;20231;-78
2021/05/13 00:15:54;;;;;;;9.37;8.67;;;10.20;99.90;;;;;;5058584;28;20648;-78
2021/05/13 00:18:22;;;;;;;10.57;9.77;;;10.20;99.90;;;;;;5081872;28;20209;-78
2021/05/13 00:20:48;;;;;;;12.30;11.10;;;10.20;99.90;;;;;;5079036;28;20194;-78
2021/05/13 00:23:14;;;;;;;10.83;9.83;;;10.30;99.90;;;;;;5067013;28;20202;-78
2021/05/13 00:25:42;;;;;;;11.10;10.30;;;10.30;99.90;;;;;;5079959;28;20217;-77
2021/05/13 00:28:09;;;;;;;12.00;10.77;;;10.30;99.90;;;;;;5073076;28;20193;-77
2021/05/13 00:30:35;;;;;;;10.77;10.07;;;10.30;99.90;;;;;;5066995;28;20209;-78
2021/05/13 00:33:01;;;;;;;11.00;10.10;;;10.30;99.90;;;;;;5076481;28;20187;-77
2021/05/13 00:35:29;;;;;;;10.90;10.00;;;10.30;99.90;;;;;;5081538;28;20218;-78
2021/05/13 00:37:55;;;;;;;11.27;10.40;;;10.30;99.90;;;;;;5077265;28;20225;-77
2021/05/13 00:40:22;;;;;;;11.10;10.10;;;10.30;99.90;;;;;;5063995;28;20206;-77
2021/05/13 00:42:49;;;;;;;11.20;10.20;;;10.30;99.90;;;;;;5077451;28;20218;-78
2021/05/13 00:45:17;;;;;;;11.63;10.53;;;10.20;99.90;;;;;;5064634;28;20233;-77
2021/05/13 00:47:47;;;;;;;13.30;11.87;;;10.20;99.90;;;;;;5079347;28;20202;-78
2021/05/13 00:50:15;;;;;;;11.73;10.77;;;10.20;99.90;;;;;;5072891;28;20272;-77
2021/05/13 00:52:42;;;;;;;11.90;10.80;;;10.20;99.90;;;;;;5055727;28;20205;-77
2021/05/13 00:55:10;;;;;;;11.50;10.60;;;10.20;99.90;;;;;;5078105;28;20214;-78
2021/05/13 00:57:39;;;;;;;11.50;10.60;;;10.10;99.90;;;;;;5082293;28;20282;-78
2021/05/13 01:00:28;;;;;;;12.10;10.90;;;10.10;99.90;;;;;;5076680;28;20200;-77
2021/05/13 01:02:54;;;;;;;12.57;11.40;;;10.10;99.90;;;;;;5052314;28;20593;-78
2021/05/13 01:05:20;;;;;;;12.20;11.20;;;10.10;99.90;;;;;;5074618;28;20222;-77
2021/05/13 01:07:48;;;;;;;12.27;11.17;;;10.00;99.90;;;;;;5073729;28;20203;-77
2021/05/13 01:10:14;;;;;;;11.53;10.63;;;10.00;99.90;;;;;;5079882;28;20259;-78
2021/05/13 01:12:41;;;;;;;11.90;11.00;;;10.00;99.90;;;;;;5076825;28;20237;-77
2021/05/13 01:15:09;;;;;;;11.40;10.50;;;10.00;99.90;;;;;;5079394;28;20221;-77
2021/05/13 01:17:41;;;;;;;12.33;11.33;;;10.10;99.90;;;;;;5075177;28;20212;-77
2021/05/13 01:20:08;;;;;;;12.20;11.20;;;10.00;99.90;;;;;;5075890;28;20189;-77
2021/05/13 01:22:35;;;;;;;11.50;10.67;;;10.00;99.90;;;;;;5066063;28;20232;-77
2021/05/13 01:25:02;;;;;;;11.70;10.77;;;10.00;99.90;;;;;;5072548;28;20215;-77
2021/05/13 01:27:28;;;;;;;12.30;11.20;;;10.00;99.90;;;;;;5061005;28;20251;-77
2021/05/13 01:29:56;;;;;;;12.03;11.07;;;10.00;99.90;;;;;;5079053;28;20206;-77
2021/05/13 01:32:23;;;;;;;12.03;11.10;;;10.00;99.90;;;;;;5073001;28;20198;-78
2021/05/13 01:34:49;;;;;;;12.53;11.47;;;10.00;99.90;;;;;;5078741;28;20222;-77
2021/05/13 01:37:16;;;;;;;10.97;10.23;;;10.00;99.90;;;;;;5060009;28;20206;-78
2021/05/13 01:39:43;;;;;;;11.50;10.50;;;10.00;99.90;;;;;;5076508;28;20201;-77
2021/05/13 01:42:14;;;;;;;11.07;10.27;;;10.00;99.90;;;;;;5076117;28;20228;-77
2021/05/13 01:44:41;;;;;;;10.77;10.03;;;9.90;99.90;;;;;;5062536;28;20217;-77
2021/05/13 01:47:07;;;;;;;12.17;10.93;;;9.90;99.90;;;;;;5061133;28;20227;-77
2021/05/13 01:49:34;;;;;;;11.97;10.90;;;9.90;99.90;;;;;;5074306;28;20272;-77
2021/05/13 01:52:01;;;;;;;14.93;11.07;;;9.90;99.90;;;;;;5077899;28;20190;-78
2021/05/13 01:54:28;;;;;;;11.20;10.30;;;9.90;99.90;;;;;;5074600;28;20267;-77
2021/05/13 01:57:02;;;;;;;11.53;10.73;;;9.90;99.90;;;;;;5072905;28;20205;-77
2021/05/13 01:59:28;;;;;;;12.00;10.90;;;9.90;99.90;;;;;;5076364;28;20194;-77
2021/05/13 02:01:55;;;;;;;13.10;11.73;;;9.90;99.90;;;;;;5077762;28;20226;-77
2021/05/13 02:04:21;;;;;;;12.50;11.50;;;9.90;99.90;;;;;;5072183;28;20210;-78
2021/05/13 02:06:47;;;;;;;11.97;11.07;;;9.90;99.90;;;;;;5067136;28;20200;-77
2021/05/13 02:09:14;;;;;;;11.77;10.70;;;9.90;99.90;;;;;;5079416;28;20217;-78
2021/05/13 02:11:40;;;;;;;11.43;10.63;;;9.90;99.90;;;;;;5060579;28;20189;-78
2021/05/13 02:14:07;;;;;;;12.40;11.33;;;9.90;99.90;;;;;;5063161;28;20193;-77
2021/05/13 02:16:34;;;;;;;11.40;10.60;;;9.90;99.90;;;;;;5084365;22;20231;-77
2021/05/13 02:19:00;;;;;;;11.77;10.67;;;9.80;99.90;;;;;;5045437;28;20210;-76
2021/05/13 02:21:28;;;;;;;11.77;10.77;;;9.80;99.90;;;;;;5052398;28;20282;-76
2021/05/13 02:23:54;;;;;;;11.97;11.00;;;9.80;99.90;;;;;;5053128;28;20222;-76
2021/05/13 02:26:21;;;;;;;11.40;10.60;;;9.70;99.90;;;;;;5070356;28;20703;-75
2021/05/13 02:28:47;;;;;;;11.83;11.00;;;9.70;99.90;;;;;;5071194;28;20202;-75
2021/05/13 02:31:15;;;;;;;11.47;10.57;;;9.60;99.90;;;;;;5050035;28;20194;-75
2021/05/13 02:33:41;;;;;;;12.07;11.13;;;9.60;99.90;;;;;;5068859;28;20671;-76
2021/05/13 02:36:08;;;;;;;12.93;11.83;;;9.60;99.90;;;;;;5070519;28;20628;-77
2021/05/13 02:38:35;;;;;;;12.77;11.67;;;9.50;99.90;;;;;;5070864;28;20576;-77
2021/05/13 02:41:02;;;;;;;12.00;11.10;;;9.50;99.90;;;;;;5042519;28;20203;-76
2021/05/13 02:43:28;;;;;;;11.43;10.63;;;9.50;99.90;;;;;;5046199;28;20210;-77
2021/05/13 02:45:54;;;;;;;12.17;11.07;;;9.50;99.90;;;;;;5043599;28;20219;-77
2021/05/13 02:48:22;;;;;;;11.73;10.93;;;9.50;99.90;;;;;;5053255;28;20658;-76
2021/05/13 02:50:48;;;;;;;12.60;11.53;;;9.40;99.90;;;;;;5054343;28;20287;-78
2021/05/13 02:53:14;;;;;;;11.00;10.30;;;9.40;99.90;;;;;;5069228;28;20195;-78
2021/05/13 02:55:41;;;;;;;11.73;10.93;;;9.40;99.90;;;;;;5048435;28;20237;-77
2021/05/13 02:58:07;;;;;;;11.93;10.93;;;9.40;99.90;;;;;;5073073;28;20265;-77
2021/05/13 03:00:35;;;;;;;13.23;12.13;;;9.30;99.90;;;;;;5043948;28;20206;-77
2021/05/13 03:03:02;;;;;;;12.43;11.43;;;9.30;99.90;;;;;;5071946;28;20603;-76
2021/05/13 03:05:29;;;;;;;12.37;11.13;;;9.20;99.90;;;;;;5046730;28;20233;-77
2021/05/13 03:07:59;;;;;;;12.43;11.43;;;9.20;99.90;;;;;;5052970;28;20231;-76
2021/05/13 03:10:32;;;;;;;12.20;11.30;;;9.20;99.90;;;;;;5073519;28;20198;-77
2021/05/13 03:12:59;;;;;;;12.57;11.50;;;9.10;99.90;;;;;;5048108;28;20200;-76
2021/05/13 03:15:25;;;;;;;12.90;11.80;;;9.20;99.90;;;;;;5054457;28;20225;-77
2021/05/13 03:17:52;;;;;;;11.80;10.90;;;9.10;99.90;;;;;;5074314;28;20259;-76
2021/05/13 03:20:23;;;;;;;11.20;10.40;;;9.10;99.90;;;;;;5074405;28;20205;-77
2021/05/13 03:22:54;;;;;;;11.13;10.30;;;9.10;99.90;;;;;;5056218;28;20225;-77
2021/05/13 03:25:26;;;;;;;11.00;10.20;;;9.00;99.90;;;;;;5049882;28;20219;-77
2021/05/13 03:27:55;;;;;;;11.70;10.80;;;9.00;99.90;;;;;;5056326;28;20228;-76
2021/05/13 03:30:25;;;;;;;12.83;11.83;;;9.00;99.90;;;;;;5050247;28;20205;-77
2021/05/13 03:32:51;;;;;;;12.03;11.20;;;8.90;99.90;;;;;;5071114;28;20674;-77
2021/05/13 03:35:18;;;;;;;11.80;10.97;;;8.90;99.90;;;;;;5054450;28;20314;-77
2021/05/13 03:37:44;;;;;;;12.70;11.60;;;8.90;99.90;;;;;;5073948;28;20205;-77
2021/05/13 03:40:13;;;;;;;13.57;12.50;;;8.90;99.90;;;;;;5051777;28;20204;-76
2021/05/13 03:42:39;;;;;;;12.10;11.20;;;8.80;99.90;;;;;;5070152;28;20225;-76
2021/05/13 03:45:07;;;;;;;12.53;11.53;;;8.90;99.90;;;;;;5055345;28;20217;-77
2021/05/13 03:47:33;;;;;;;11.87;10.93;;;8.90;99.90;;;;;;5071780;28;20191;-78
2021/05/13 03:49:59;;;;;;;11.67;10.87;;;8.90;99.90;;;;;;5067576;28;20247;-77
2021/05/13 03:52:26;;;;;;;11.63;10.83;;;9.00;99.90;;;;;;5071727;28;20187;-79
2021/05/13 03:54:52;;;;;;;11.87;10.77;;;9.00;99.90;;;;;;5074346;28;20211;-77
2021/05/13 03:57:19;;;;;;;12.10;11.20;;;9.00;99.90;;;;;;5069812;28;20197;-78
2021/05/13 03:59:45;;;;;;;11.47;10.67;;;9.10;99.90;;;;;;5074763;28;20700;-78
2021/05/13 04:02:26;;;;;;;11.83;11.00;;;9.20;99.90;;;;;;5056524;28;20217;-77
2021/05/13 04:04:52;;;;;;;11.63;10.83;;;9.20;99.90;;;;;;5044970;28;20314;-78
2021/05/13 04:07:19;;;;;;;11.27;10.47;;;9.30;99.90;;;;;;5054080;28;20194;-77
2021/05/13 04:09:45;;;;;;;11.47;10.67;;;9.30;99.90;;;;;;5046996;28;20198;-78
2021/05/13 04:12:12;;;;;;;12.17;11.27;;;9.40;99.90;;;;;;5055293;28;20206;-77
2021/05/13 04:14:39;;;;;;;11.97;11.07;;;9.40;99.90;;;;;;5055482;28;20256;-77
2021/05/13 04:17:07;;;;;;;12.07;11.27;;;9.50;99.90;;;;;;5055137;28;20202;-77
2021/05/13 04:19:34;;;;;;;12.50;11.43;;;9.50;99.90;;;;;;5049038;28;20203;-77
2021/05/13 04:22:00;;;;;;;11.63;10.83;;;9.50;99.90;;;;;;5055144;28;20744;-77
2021/05/13 04:24:27;;;;;;;11.50;10.67;;;9.60;99.90;;;;;;5073326;28;20678;-78
2021/05/13 04:26:53;;;;;;;6.30;5.70;;;9.70;99.90;;;;;;5071685;28;20210;-78
2021/05/13 04:29:20;;;;;;;6.10;5.50;;;9.80;99.90;;;;;;5047775;28;20198;-78
2021/05/13 04:31:47;;;;;;;6.80;6.20;;;9.90;99.90;;;;;;5073180;28;20187;-77
2021/05/13 04:34:13;;;;;;;6.27;5.77;;;10.00;99.90;;;;;;5051867;28;20203;-78
2021/05/13 04:36:39;;;;;;;5.97;5.47;;;10.20;99.90;;;;;;5055392;28;20222;-77
2021/05/13 04:39:06;;;;;;;6.80;6.20;;;10.30;99.90;;;;;;5070907;28;20191;-78
2021/05/13 04:41:33;;;;;;;7.17;5.13;;;10.40;99.90;;;;;;5072929;28;20218;-78
2021/05/13 04:44:00;;;;;;;5.93;4.80;;;10.70;99.90;;;;;;5055714;28;20230;-78
2021/05/13 04:46:29;;;;;;;6.90;6.20;;;11.20;99.90;;;;;;5055664;28;20303;-78
2021/05/13 04:49:15;;;;;;;5.40;4.90;;;11.30;99.90;;;;;;5073384;28;20209;-78
2021/05/13 04:51:42;;;;;;;8.67;8.07;;;11.50;99.90;;;;;;5047718;28;20194;-78
2021/05/13 04:54:08;;;;;;;8.40;7.90;;;11.70;99.90;;;;;;5068379;28;20203;-76
2021/05/13 04:56:35;;;;;;;7.90;7.30;;;11.70;99.90;;;;;;5053768;28;20234;-77
2021/05/13 04:59:02;;;;;;;6.73;6.20;;;11.60;99.90;;;;;;5067583;28;20562;-77
2021/05/13 05:01:28;;;;;;;5.77;5.27;;;11.50;99.90;;;;;;5072092;28;20215;-77
2021/05/13 05:03:55;;;;;;;5.77;4.90;;;11.40;99.90;;;;;;5054082;28;20672;-77
2021/05/13 05:06:22;;;;;;;5.43;4.60;;;11.30;99.90;;;;;;5072598;28;20223;-77
2021/05/13 05:08:48;;;;;;;5.27;4.77;;;11.20;99.90;;;;;;5071332;28;20194;-77
2021/05/13 05:11:16;;;;;;;5.70;5.03;;;11.20;99.90;;;;;;5061990;28;20195;-77
2021/05/13 05:13:43;;;;;;;5.50;3.73;;;11.50;99.90;;;;;;5052512;28;20198;-77
2021/05/13 05:16:09;;;;;;;7.13;4.33;;;11.70;99.90;;;;;;5059373;28;20235;-77
2021/05/13 05:18:35;;;;;;;7.13;5.23;;;11.80;99.90;;;;;;5054378;28;20200;-76
2021/05/13 05:21:02;;;;;;;5.33;3.93;;;11.90;99.90;;;;;;5072147;28;20605;-77
2021/05/13 05:23:29;;;;;;;5.27;3.87;;;11.90;99.90;;;;;;5054119;28;20203;-76
2021/05/13 05:25:56;;;;;;;4.20;3.77;;;12.10;99.90;;;;;;5054888;28;20316;-79
2021/05/13 05:28:23;;;;;;;6.70;4.37;;;12.50;99.90;;;;;;5071247;28;20193;-77
2021/05/13 05:30:50;;;;;;;6.67;5.80;;;13.00;99.90;;;;;;5054422;28;20216;-77
2021/05/13 05:33:16;;;;;;;5.63;4.47;;;13.40;99.90;;;;;;5073116;28;20194;-77
2021/05/13 05:35:43;;;;;;;8.47;7.87;;;13.90;99.90;;;;;;5055097;28;20768;-77
2021/05/13 05:38:10;;;;;;;10.80;10.00;;;14.20;99.90;;;;;;5054623;28;20205;-77
2021/05/13 05:40:37;;;;;;;9.67;8.97;;;14.90;99.90;;;;;;5072078;28;20259;-76
2021/05/13 05:43:05;;;;;;;10.40;9.60;;;15.60;99.90;;;;;;5070728;28;20276;-77
2021/05/13 05:45:33;;;;;;;9.10;8.50;;;16.10;99.90;;;;;;5070432;28;20288;-77
2021/05/13 05:48:03;;;;;;;9.03;8.43;;;16.40;99.90;;;;;;5071741;28;20194;-78
2021/05/13 05:50:33;;;;;;;9.77;8.87;;;16.30;99.90;;;;;;5054153;28;20205;-76
2021/05/13 05:52:59;;;;;;;9.50;8.80;;;15.90;99.90;;;;;;5071608;28;20820;-76
2021/05/13 05:55:27;;;;;;;9.10;8.40;;;15.60;99.90;;;;;;5071170;28;20229;-79
2021/05/13 05:57:54;;;;;;;10.00;9.27;;;15.50;99.90;;;;;;5052941;28;20292;-76
2021/05/13 06:00:21;;;;;;;9.10;8.47;;;15.40;99.90;;;;;;5071677;28;20204;-77
2021/05/13 06:02:47;;;;;;;8.77;8.17;;;15.30;99.90;;;;;;5071376;28;20219;-76
2021/05/13 06:05:14;;;;;;;10.07;9.27;;;15.20;99.90;;;;;;5071727;28;20216;-77
2021/05/13 06:07:41;;;;;;;9.40;8.80;;;15.10;99.90;;;;;;5054536;28;20213;-76
2021/05/13 06:10:09;;;;;;;9.20;8.50;;;15.20;99.90;;;;;;5073022;28;20205;-77
2021/05/13 06:12:37;;;;;;;9.60;8.90;;;15.20;99.90;;;;;;5073027;28;20190;-77
2021/05/13 06:15:04;;;;;;;9.40;8.70;;;14.80;99.90;;;;;;5050522;28;20233;-78
2021/05/13 06:17:30;;;;;;;9.17;8.40;;;14.70;99.90;;;;;;5051580;28;20205;-77
2021/05/13 06:20:01;;;;;;;9.60;8.90;;;14.70;99.90;;;;;;5043143;28;20212;-77
2021/05/13 06:22:28;;;;;;;9.40;8.73;;;14.80;99.90;;;;;;5046597;28;20265;-77
2021/05/13 06:24:58;;;;;;;9.37;8.60;;;14.90;99.90;;;;;;5060815;28;21003;-77
2021/05/13 06:27:24;;;;;;;9.00;8.27;;;15.30;99.90;;;;;;5074268;28;20199;-77
2021/05/13 06:29:51;;;;;;;9.30;8.50;;;15.40;99.90;;;;;;5067434;28;20220;-77
2021/05/13 06:32:18;;;;;;;9.67;8.97;;;15.60;99.90;;;;;;5044405;28;20201;-77
2021/05/13 06:34:45;;;;;;;9.30;8.63;;;15.90;99.90;;;;;;5072448;28;20201;-77
2021/05/13 06:37:11;;;;;;;9.70;9.00;;;16.20;99.90;;;;;;5067283;28;20570;-77
2021/05/13 06:39:38;;;;;;;9.33;8.53;;;16.50;99.90;;;;;;5049875;28;20199;-78
2021/05/13 06:42:05;;;;;;;9.30;8.50;;;17.00;99.90;;;;;;5073352;28;20222;-77
2021/05/13 06:44:31;;;;;;;7.00;6.40;;;17.10;99.90;;;;;;5056329;28;20667;-76
2021/05/13 06:46:59;;;;;;;6.57;5.90;;;17.40;99.90;;;;;;5056701;28;20194;-76
2021/05/13 06:49:26;;;;;;;5.67;4.50;;;17.50;99.90;;;;;;5051551;28;20202;-77
2021/05/13 06:51:52;;;;;;;7.43;6.83;;;17.70;99.90;;;;;;5074229;28;20283;-77
2021/05/13 06:54:19;;;;;;;7.83;7.27;;;18.00;99.90;;;;;;5074633;28;20195;-75
2021/05/13 06:56:47;;;;;;;8.40;7.60;;;18.20;99.90;;;;;;5053666;28;20595;-77
2021/05/13 06:59:13;;;;;;;9.13;8.40;;;18.50;99.90;;;;;;5071811;28;20198;-77
2021/05/13 07:01:40;;;;;;;6.53;6.03;;;18.70;99.90;;;;;;5073834;28;20211;-77
2021/05/13 07:04:07;;;;;;;3.23;2.87;;;18.80;99.90;;;;;;5056547;28;20251;-77
2021/05/13 07:06:34;;;;;;;4.80;4.37;;;19.10;99.90;;;;;;5056529;28;20233;-78
2021/05/13 07:09:00;;;;;;;3.60;3.30;;;19.40;99.90;;;;;;5073396;28;20193;-78
2021/05/13 07:11:27;;;;;;;5.20;4.60;;;19.10;99.90;;;;;;5052191;28;20199;-77
2021/05/13 07:13:53;;;;;;;5.80;5.40;;;19.10;99.90;;;;;;5063222;28;20195;-78
2021/05/13 07:16:20;;;;;;;4.03;2.77;;;19.50;99.90;;;;;;5064972;28;20272;-77
2021/05/13 07:18:46;;;;;;;8.00;7.40;;;19.70;99.90;;;;;;5070186;28;20716;-79
2021/05/13 07:21:14;;;;;;;4.30;2.80;;;20.00;99.90;;;;;;5051952;28;20195;-79
2021/05/13 07:23:43;;;;;;;4.40;2.70;;;20.10;99.90;;;;;;5073885;28;20196;-79
2021/05/13 07:26:09;;;;;;;7.70;7.07;;;20.40;99.90;;;;;;5075680;28;20214;-79
2021/05/13 07:28:36;;;;;;;8.57;7.97;;;20.50;99.90;;;;;;5069298;28;20206;-79
2021/05/13 07:31:02;;;;;;;2.73;2.53;;;20.80;99.90;;;;;;5054015;28;20232;-79
2021/05/13 07:33:29;;;;;;;2.87;2.50;;;20.80;99.90;;;;;;5073536;28;20190;-79
2021/05/13 07:35:55;;;;;;;4.77;4.37;;;20.60;99.90;;;;;;5056206;28;20222;-79
2021/05/13 07:38:22;;;;;;;4.20;3.80;;;20.80;99.90;;;;;;5056476;28;20629;-80
2021/05/13 07:40:49;;;;;;;7.40;6.90;;;20.90;99.90;;;;;;5075476;28;20572;-79
2021/05/13 07:43:16;;;;;;;10.60;9.73;;;21.00;99.90;;;;;;5075455;28;20222;-79
2021/05/13 07:45:44;;;;;;;5.63;5.13;;;20.50;99.90;;;;;;5076083;28;20296;-79
2021/05/13 07:48:11;;;;;;;4.00;3.10;;;20.80;99.90;;;;;;5050662;28;20223;-79
2021/05/13 07:50:38;;;;;;;3.40;3.10;;;20.60;99.90;;;;;;5058808;28;20191;-79
2021/05/13 07:53:05;;;;;;;4.90;3.47;;;20.70;99.90;;;;;;5055486;28;20607;-79
2021/05/13 07:55:33;;;;;;;3.07;2.67;;;20.70;99.90;;;;;;5075765;28;20214;-79
2021/05/13 07:57:59;;;;;;;3.50;2.53;;;21.00;99.90;;;;;;5071126;28;20277;-80
2021/05/13 08:00:25;;;;;;;3.37;3.07;;;21.30;99.90;;;;;;5071988;28;20607;-79
2021/05/13 08:02:52;;;;;;;3.53;3.23;;;21.50;99.90;;;;;;5056029;28;20218;-79
2021/05/13 08:05:18;;;;;;;4.00;3.10;;;21.60;99.90;;;;;;5075852;28;20626;-79
2021/05/13 08:07:45;;;;;;;3.77;3.33;;;21.70;99.90;;;;;;5076176;28;20198;-78
2021/05/13 08:10:12;;;;;;;3.43;2.90;;;21.50;99.90;;;;;;5071139;28;20720;-77
2021/05/13 08:12:39;;;;;;;8.10;7.50;;;21.50;99.90;;;;;;5063883;28;20222;-79
2021/05/13 08:18:05;;;;;;;8.10;7.50;;;21.50;99.90;;;;;;5016004;28;20212;-78
2021/05/13 08:20:31;;;;;;;7.77;7.17;;;21.60;99.90;;;;;;5017632;28;20219;-79
2021/05/13 08:22:58;;;;;;;8.50;7.80;;;21.60;99.90;;;;;;5018865;28;20204;-79
2021/05/13 08:25:25;;;;;;;8.83;8.03;;;21.70;99.90;;;;;;5018353;28;20192;-78
2021/05/13 08:27:52;;;;;;;8.27;7.47;;;21.70;99.90;;;;;;5031850;28;20235;-79
2021/05/13 08:30:19;;;;;;;7.60;7.13;;;21.80;99.90;;;;;;5031130;28;20198;-78
2021/05/13 08:32:46;;;;;;;7.70;7.10;;;21.90;99.90;;;;;;5013014;28;20673;-78
2021/05/13 08:35:12;;;;;;;7.63;7.13;;;22.10;99.90;;;;;;5011692;28;20610;-79
2021/05/13 08:37:40;;;;;;;7.63;7.13;;;22.20;99.90;;;;;;5019649;28;20298;-78
2021/05/13 08:40:07;;;;;;;7.87;7.40;;;22.20;99.90;;;;;;5009336;28;20193;-78
2021/05/13 08:42:34;;;;;;;8.13;7.50;;;22.60;99.90;;;;;;5016575;28;20804;-79
2021/05/13 08:45:02;;;;;;;7.93;7.43;;;22.50;99.90;;;;;;5014478;28;20204;-77
2021/05/13 08:47:28;;;;;;;7.77;7.27;;;22.50;99.90;;;;;;5016469;28;20224;-78
2021/05/13 08:49:55;;;;;;;8.00;7.50;;;22.70;99.90;;;;;;5015231;28;20224;-78
2021/05/13 08:52:25;;;;;;;7.60;7.10;;;23.00;99.90;;;;;;5016180;28;20227;-78
2021/05/13 08:54:52;;;;;;;7.73;7.23;;;22.90;99.90;;;;;;5017097;28;20208;-80
2021/05/13 08:57:19;;;;;;;7.23;6.63;;;22.60;99.90;;;;;;5031300;28;20224;-78
2021/05/13 08:59:46;;;;;;;6.77;6.37;;;22.80;99.90;;;;;;5000446;28;20296;-79
2021/05/13 09:02:15;;;;;;;6.70;6.10;;;23.30;99.90;;;;;;5003222;28;20234;-79
2021/05/13 09:04:43;;;;;;;7.13;6.60;;;23.50;99.90;;;;;;5007141;28;20236;-78
2021/05/13 09:07:13;;;;;;;7.60;7.10;;;23.40;98.50;;;;;;5013889;28;20299;-80
2021/05/13 09:09:54;;;;;;;7.40;6.83;;;23.50;97.40;;;;;;5032528;28;20212;-80
2021/05/13 09:12:20;;;;;;;7.60;7.10;;;23.90;96.70;;;;;;5031307;28;20826;-78
2021/05/13 09:14:57;;;;;;;7.63;6.80;;;23.80;96.10;;;;;;5009825;28;20209;-78
2021/05/13 09:17:26;;;;;;;7.00;6.60;;;24.30;94.90;;;;;;5032948;28;20237;-79
2021/05/13 09:19:54;;;;;;;7.10;6.70;;;24.30;94.20;;;;;;5020773;28;20676;-79
2021/05/13 09:22:23;;;;;;;7.50;6.90;;;24.20;96.50;;;;;;5028709;28;20254;-79
2021/05/13 09:24:52;;;;;;;7.30;6.80;;;24.50;94.40;;;;;;5034689;28;20565;-78
2021/05/13 09:27:21;;;;;;;7.20;6.70;;;24.70;91.70;;;;;;5030987;28;20232;-78
2021/05/13 09:30:00;;;;;;;7.10;6.70;;;24.80;93.60;;;;;;5033888;28;20246;-79
2021/05/13 09:32:28;;;;;;;7.03;6.63;;;24.80;92.10;;;;;;5042090;28;20239;-79
2021/05/13 09:34:54;;;;;;;6.80;6.40;;;25.00;91.60;;;;;;5034258;28;20199;-79
2021/05/13 09:37:21;;;;;;;7.13;6.63;;;25.00;90.60;;;;;;5028202;28;20219;-78
2021/05/13 09:39:49;;;;;;;7.47;6.83;;;24.80;91.10;;;;;;5045590;28;20211;-78
2021/05/13 09:42:18;;;;;;;7.87;7.10;;;24.60;91.20;;;;;;5031596;28;20222;-79
2021/05/13 09:44:46;;;;;;;7.57;7.00;;;24.50;92.50;;;;;;5023761;28;20207;-79
2021/05/13 09:47:14;;;;;;;7.00;6.50;;;24.80;90.60;;;;;;5036351;28;20235;-79
2021/05/13 09:50:08;;;;;;;7.10;6.50;;;25.00;91.10;;;;;;5037382;28;20246;-80
2021/05/13 09:52:50;;;;;;;6.80;6.40;;;25.20;90.50;;;;;;5032403;28;20196;-78
2021/05/13 09:55:25;;;;;;;7.27;6.77;;;25.40;91.50;;;;;;5025470;28;20197;-79
2021/05/13 09:57:56;;;;;;;7.10;6.70;;;25.30;90.30;;;;;;5031877;28;20200;-78
2021/05/13 10:00:41;;;;;;;7.70;7.10;;;25.30;90.50;;;;;;5026290;28;20200;-78
2021/05/13 10:03:11;;;;;;;7.23;6.73;;;25.30;86.10;;;;;;5030165;28;20230;-79
2021/05/13 10:05:41;;;;;;;7.47;6.97;;;25.00;90.50;;;;;;5037760;28;20247;-79
2021/05/13 10:08:07;;;;;;;7.40;7.00;;;25.50;90.00;;;;;;5049173;28;20635;-78
2021/05/13 10:10:35;;;;;;;7.47;6.90;;;25.60;86.00;;;;;;5039654;28;20195;-79
2021/05/13 10:13:02;;;;;;;7.00;6.60;;;25.50;87.00;;;;;;5024767;28;20215;-79
2021/05/13 10:15:29;;;;;;;7.00;6.60;;;25.80;88.00;;;;;;5030042;28;20221;-78
2021/05/13 10:17:58;;;;;;;7.17;6.67;;;25.70;88.60;;;;;;5045164;28;20199;-79
2021/05/13 10:20:32;;;;;;;6.37;6.07;;;25.30;83.90;;;;;;5028891;28;20214;-80
2021/05/13 10:22:59;;;;;;;7.20;6.70;;;25.20;88.30;;;;;;5043717;28;20223;-77
2021/05/13 10:25:28;;;;;;;7.00;6.50;;;24.90;89.10;;;;;;5025632;28;20207;-78
2021/05/13 10:27:57;;;;;;;7.50;6.80;;;24.30;91.10;;;;;;5047268;28;20206;-78
2021/05/13 10:30:29;;;;;;;7.90;7.40;;;23.70;90.80;;;;;;5033846;28;20203;-79
2021/05/13 10:33:15;;;;;;;6.50;6.10;;;22.90;91.40;;;;;;5052975;28;20191;-76
2021/05/13 10:36:01;;;;;;;6.50;6.10;;;22.40;92.20;;;;;;5055246;28;20280;-76
2021/05/13 10:38:50;;;;;;;5.63;5.13;;;22.00;92.20;;;;;;5045982;28;20211;-78
2021/05/13 10:41:37;;;;;;;5.67;4.23;;;21.70;94.00;;;;;;5044490;28;20205;-77
2021/05/13 10:44:36;;;;;;;6.20;5.40;;;21.30;95.10;;;;;;5051996;28;20195;-78
2021/05/13 10:47:03;;;;;;;6.97;5.73;;;20.70;96.00;;;;;;5049195;28;20723;-77
2021/05/13 10:49:29;;;;;;;4.80;4.30;;;20.20;96.30;;;;;;5038412;28;20207;-79
2021/05/13 10:51:57;;;;;;;6.17;3.30;;;20.10;97.70;;;;;;5049038;28;20294;-78
2021/05/13 10:54:47;;;;;;;5.63;4.50;;;19.90;97.50;;;;;;5036928;28;20214;-77
2021/05/13 10:57:14;;;;;;;3.37;3.07;;;19.70;98.00;;;;;;5043835;28;20243;-78
2021/05/13 11:00:01;;;;;;;6.13;5.73;;;19.50;98.30;;;;;;5049863;28;20199;-77
2021/05/13 11:02:38;;;;;;;6.17;5.63;;;19.50;98.10;;;;;;5024006;28;20764;-77
2021/05/13 11:05:39;;;;;;;7.77;6.97;;;19.60;98.80;;;;;;5049444;28;20222;-78
2021/05/13 11:08:26;;;;;;;6.37;5.87;;;19.90;99.10;;;;;;5037027;28;20199;-78
2021/05/13 11:11:02;;;;;;;6.03;5.67;;;20.00;97.80;;;;;;5050201;28;20205;-78
2021/05/13 11:13:39;;;;;;;2.77;2.50;;;19.80;97.10;;;;;;5035434;28;20198;-79
2021/05/13 11:16:06;;;;;;;4.90;4.60;;;20.00;98.30;;;;;;5056471;28;20737;-77
2021/05/13 11:18:33;;;;;;;4.40;4.00;;;20.00;97.70;;;;;;5055509;28;20229;-78
2021/05/13 11:21:00;;;;;;;4.10;2.87;;;20.20;98.10;;;;;;5039451;28;20212;-78
2021/05/13 11:23:28;;;;;;;3.27;2.97;;;20.10;97.90;;;;;;5035686;28;20213;-77
2021/05/13 11:25:56;;;;;;;3.00;2.80;;;20.20;98.40;;;;;;5049746;28;20272;-77
2021/05/13 11:28:35;;;;;;;3.00;2.80;;;20.40;97.70;;;;;;5044719;28;20212;-78
2021/05/13 11:31:18;;;;;;;3.00;2.80;;;20.50;96.30;;;;;;5050623;28;20206;-78
2021/05/13 11:33:47;;;;;;;4.40;4.10;;;20.30;97.00;;;;;;5038089;28;20197;-78
2021/05/13 11:36:15;;;;;;;5.60;5.30;;;20.10;96.70;;;;;;5055837;28;20218;-77
2021/05/13 11:38:41;;;;;;;5.43;5.10;;;20.00;97.40;;;;;;5047951;28;20197;-77
2021/05/13 11:41:08;;;;;;;5.40;5.00;;;19.60;98.50;;;;;;5039767;28;20653;-77
2021/05/13 11:43:36;;;;;;;5.90;5.50;;;19.20;97.90;;;;;;5055632;28;20211;-77
2021/05/13 11:46:04;;;;;;;6.47;6.07;;;19.00;98.40;;;;;;5039140;28;20216;-77
2021/05/13 11:48:33;;;;;;;4.70;4.40;;;18.70;99.10;;;;;;5034717;28;20262;-78
2021/05/13 11:51:02;;;;;;;5.20;4.90;;;18.40;99.70;;;;;;5055417;28;20203;-77
2021/05/13 11:53:29;;;;;;;4.90;4.50;;;18.20;99.30;;;;;;5056328;28;20675;-77
2021/05/13 11:55:56;;;;;;;6.23;5.03;;;17.90;99.90;;;;;;5038852;28;20242;-77
2021/05/13 11:58:45;;;;;;;4.73;4.53;;;17.80;99.90;;;;;;5054247;28;20203;-77
2021/05/13 12:01:30;;;;;;;4.60;4.40;;;17.70;99.90;;;;;;5039330;28;20270;-77
2021/05/13 12:04:02;;;;;;;4.57;4.27;;;17.90;99.90;;;;;;5056436;28;20219;-76
2021/05/13 12:06:29;;;;;;;4.60;4.30;;;18.00;99.90;;;;;;5046390;28;20226;-78
2021/05/13 12:09:00;;;;;;;3.90;3.70;;;18.10;99.90;;;;;;5051550;28;20237;-77
2021/05/13 12:11:27;;;;;;;4.30;4.00;;;18.20;99.90;;;;;;5054454;28;20691;-77
2021/05/13 12:13:56;;;;;;;4.07;3.80;;;18.40;99.90;;;;;;5054793;28;20249;-77
2021/05/13 12:16:24;;;;;;;3.90;3.70;;;18.50;99.90;;;;;;5033509;28;20753;-76
2021/05/13 12:18:53;;;;;;;3.30;3.10;;;18.70;99.90;;;;;;5027257;28;20660;-77
2021/05/13 12:21:20;;;;;;;4.60;4.37;;;19.10;99.90;;;;;;5035550;28;20270;-77
2021/05/13 12:23:48;;;;;;;4.67;4.37;;;19.40;99.60;;;;;;5055361;28;20228;-76
2021/05/13 12:26:21;;;;;;;3.77;3.40;;;19.90;98.80;;;;;;5045908;28;20223;-77
2021/05/13 12:28:49;;;;;;;3.00;2.80;;;20.10;98.30;;;;;;5052644;28;20214;-77
2021/05/13 12:31:28;;;;;;;2.80;2.70;;;20.20;97.10;;;;;;5035367;28;20689;-76
2021/05/13 12:33:55;;;;;;;3.80;3.60;;;20.40;96.80;;;;;;5038915;28;20193;-77
2021/05/13 12:36:22;;;;;;;6.50;6.10;;;20.50;97.00;;;;;;5046115;28;20625;-77
2021/05/13 12:38:48;;;;;;;6.13;5.83;;;20.50;96.60;;;;;;5036364;28;20210;-77
2021/05/13 12:41:16;;;;;;;6.27;5.90;;;20.40;96.60;;;;;;5042830;28;20198;-78
2021/05/13 12:43:44;;;;;;;4.50;4.20;;;20.40;96.70;;;;;;5051571;28;20272;-77
2021/05/13 12:46:18;;;;;;;5.40;5.10;;;20.40;96.90;;;;;;5040604;28;20249;-78
2021/05/13 12:48:46;;;;;;;6.37;5.83;;;20.50;97.40;;;;;;5055696;28;20202;-78
2021/05/13 12:51:18;;;;;;;6.30;6.00;;;20.50;97.00;;;;;;5041086;28;20556;-78
2021/05/13 12:53:49;;;;;;;6.30;6.00;;;20.60;96.70;;;;;;5054205;28;20282;-78